Time;durP1;ratioP1;P1;durP2;ratioP2;P2;SDS_P1;SDS_P2;PMS_P1;PMS_P2;Temp;Humidity;BMP_temperature;BMP_pressure;BME280_temperature;BME280_humidity;BME280_pressure;Samples;Min_cycle;Max_cycle;Signal;HPM_P1;HPM_P2
2022/12/02 00:01:15;;;;;;;;;12.00;11.00;;;;;8.42;52.55;99847.91;5084276;28;8826;-76
2022/12/02 00:03:45;;;;;;;;;9.20;9.20;;;;;8.23;52.90;99845.88;5105955;28;8863;-76
2022/12/02 00:06:16;;;;;;;;;6.60;6.60;;;;;8.15;52.14;99846.66;5095093;28;8937;-75
2022/12/02 00:08:44;;;;;;;;;8.40;7.00;;;;;8.05;52.50;99847.34;5089504;28;8847;-74
2022/12/02 00:11:25;;;;;;;;;8.00;8.00;;;;;8.32;52.47;99853.81;5094907;28;8851;-75
2022/12/02 00:13:57;;;;;;;;;12.40;10.00;;;;;8.44;51.44;99853.97;5097065;28;8949;-75
2022/12/02 00:16:27;;;;;;;;;9.40;8.20;;;;;8.39;51.69;99851.31;5097628;28;8836;-76
2022/12/02 00:18:56;;;;;;;;;6.00;6.00;;;;;8.55;51.49;99852.41;5091601;28;8856;-75
2022/12/02 00:21:25;;;;;;;;;10.60;6.60;;;;;8.34;51.84;99852.97;5089468;28;10001;-75
2022/12/02 00:23:53;;;;;;;;;10.20;7.80;;;;;8.53;51.20;99851.50;5090632;28;8865;-76
2022/12/02 00:26:22;;;;;;;;;9.80;8.60;;;;;8.56;50.76;99851.56;5078950;28;8861;-74
2022/12/02 00:28:50;;;;;;;;;6.40;6.20;;;;;8.43;51.57;99847.06;5053128;28;8977;-74
2022/12/02 00:31:19;;;;;;;;;5.00;5.00;;;;;8.63;51.11;99839.50;5084010;28;8944;-75
2022/12/02 00:33:50;;;;;;;;;6.20;5.80;;;;;8.72;50.74;99839.59;5099474;28;8847;-76
2022/12/02 00:36:19;;;;;;;;;6.60;5.00;;;;;8.81;50.58;99846.66;5054868;28;8836;-75
2022/12/02 00:38:47;;;;;;;;;5.60;5.00;;;;;8.82;50.53;99848.38;5073367;28;8851;-74
2022/12/02 00:41:16;;;;;;;;;8.60;8.60;;;;;8.77;50.61;99832.75;5088554;28;8855;-75
2022/12/02 00:46:31;;;;;;;;;5.80;3.80;;;;;8.73;50.16;99832.66;5088455;28;8894;-77
2022/12/02 00:49:05;;;;;;;;;10.00;7.80;;;;;8.67;50.93;99837.81;5088457;28;8851;-74
2022/12/02 00:51:34;;;;;;;;;6.80;5.80;;;;;8.67;50.43;99830.00;5054051;28;8866;-76
2022/12/02 00:54:02;;;;;;;;;6.20;5.00;;;;;8.81;50.68;99837.94;5074875;28;8904;-75
2022/12/02 00:56:32;;;;;;;;;7.80;7.40;;;;;8.63;49.90;99831.69;5068239;28;8938;-75
2022/12/02 00:59:01;;;;;;;;;5.60;5.60;;;;;8.67;50.42;99840.41;5069057;28;9552;-78
2022/12/02 01:01:31;;;;;;;;;4.60;4.60;;;;;8.69;50.47;99838.69;5069309;28;8891;-74
2022/12/02 01:04:01;;;;;;;;;6.00;6.00;;;;;8.67;49.79;99846.47;5070181;28;8910;-76
2022/12/02 01:06:30;;;;;;;;;6.00;5.20;;;;;8.60;50.70;99836.88;5088050;28;8943;-76
2022/12/02 01:08:58;;;;;;;;;5.00;2.60;;;;;8.47;51.06;99834.94;5089064;28;8851;-74
2022/12/02 01:11:27;;;;;;;;;6.60;5.80;;;;;8.55;50.37;99835.94;5088120;28;8855;-74
2022/12/02 01:13:55;;;;;;;;;3.80;3.80;;;;;8.29;51.58;99839.03;5073702;28;8865;-74
2022/12/02 01:16:24;;;;;;;;;5.20;5.20;;;;;8.26;51.10;99839.00;5101066;28;8842;-74
2022/12/02 01:18:53;;;;;;;;;5.00;4.60;;;;;8.12;52.18;99836.19;5068631;28;8858;-74
2022/12/02 01:21:23;;;;;;;;;5.00;5.00;;;;;8.33;51.18;99834.75;5088030;28;8847;-74
2022/12/02 01:23:51;;;;;;;;;6.40;6.40;;;;;8.37;51.26;99834.81;5055176;28;8932;-75
2022/12/02 01:26:20;;;;;;;;;9.40;7.00;;;;;8.36;50.93;99838.25;5091366;28;8847;-74
2022/12/02 01:28:48;;;;;;;;;7.20;5.00;;;;;8.31;50.88;99836.47;5089527;28;8851;-75
2022/12/02 01:31:17;;;;;;;;;6.80;3.00;;;;;8.44;51.15;99842.72;5088937;28;8871;-76
2022/12/02 01:33:46;;;;;;;;;6.00;5.80;;;;;8.42;51.27;99834.03;5087659;28;8855;-75
2022/12/02 01:36:15;;;;;;;;;3.40;3.40;;;;;8.52;50.33;99830.69;5087876;28;8844;-74
2022/12/02 01:38:44;;;;;;;;;6.20;6.00;;;;;8.43;50.48;99828.88;5066733;28;8846;-74
2022/12/02 01:41:13;;;;;;;;;2.60;2.60;;;;;8.31;51.38;99832.13;5083364;28;8877;-75
2022/12/02 01:43:42;;;;;;;;;5.40;2.60;;;;;8.29;50.86;99827.78;5066788;28;9058;-75
2022/12/02 01:46:12;;;;;;;;;5.00;5.00;;;;;8.21;51.78;99825.06;5072549;28;8847;-74
2022/12/02 01:48:40;;;;;;;;;6.00;5.00;;;;;8.12;51.66;99820.63;5086435;28;8882;-74
2022/12/02 01:51:10;;;;;;;;;3.40;3.40;;;;;8.03;52.25;99817.88;5088025;28;8898;-74
2022/12/02 01:53:40;;;;;;;;;7.20;6.60;;;;;7.98;51.77;99824.75;5086831;28;8835;-76
2022/12/02 01:56:11;;;;;;;;;6.20;6.20;;;;;7.93;52.52;99819.47;5086770;28;8982;-75
2022/12/02 01:58:39;;;;;;;;;4.60;3.40;;;;;8.16;51.35;99813.75;5087310;28;9644;-75
2022/12/02 02:01:23;;;;;;;;;6.60;5.60;;;;;8.08;51.90;99810.16;5083285;28;8843;-72
2022/12/02 02:03:52;;;;;;;;;8.00;6.00;;;;;7.83;52.88;99812.41;5072795;28;10047;-74
2022/12/02 02:06:21;;;;;;;;;5.80;5.80;;;;;8.04;52.19;99811.00;5067532;28;8873;-74
2022/12/02 02:08:50;;;;;;;;;6.20;6.20;;;;;8.01;52.42;99809.19;5050995;28;8882;-73
2022/12/02 02:11:21;;;;;;;;;4.00;4.00;;;;;8.07;51.94;99814.50;5086478;28;9589;-74
2022/12/02 02:13:56;;;;;;;;;5.80;5.00;;;;;8.03;52.33;99807.50;5087801;28;8969;-74
2022/12/02 02:16:25;;;;;;;;;3.80;2.60;;;;;8.07;51.87;99805.81;5039653;28;8858;-74
2022/12/02 02:18:53;;;;;;;;;5.20;5.20;;;;;7.75;53.14;99803.63;5071571;28;8989;-75
2022/12/02 02:21:28;;;;;;;;;5.20;5.20;;;;;7.61;53.10;99804.28;5067678;28;8830;-73
2022/12/02 02:23:59;;;;;;;;;7.40;6.00;;;;;7.65;53.98;99805.22;5065780;28;8878;-74
2022/12/02 02:26:28;;;;;;;;;5.40;5.20;;;;;7.51;54.35;99801.56;5032324;28;9711;-75
2022/12/02 02:28:57;;;;;;;;;5.00;5.00;;;;;7.39;54.70;99816.06;5066151;28;8862;-75
2022/12/02 02:31:26;;;;;;;;;6.60;6.60;;;;;7.33;54.73;99813.34;5066209;28;8850;-75
2022/12/02 02:33:55;;;;;;;;;8.00;8.00;;;;;7.34;54.52;99822.03;5067665;28;8888;-73
2022/12/02 02:36:24;;;;;;;;;5.40;5.40;;;;;7.29;55.53;99819.34;5067643;28;8894;-75
2022/12/02 02:38:53;;;;;;;;;9.00;6.60;;;;;7.45;54.71;99822.19;5100244;28;8862;-75
2022/12/02 02:41:23;;;;;;;;;4.60;4.20;;;;;7.76;53.33;99821.81;5083015;28;8852;-75
2022/12/02 02:43:52;;;;;;;;;6.00;5.60;;;;;7.95;53.43;99819.50;5088129;28;8848;-74
2022/12/02 02:46:22;;;;;;;;;6.20;4.60;;;;;7.79;53.07;99827.06;5085977;28;8855;-76
2022/12/02 02:48:51;;;;;;;;;5.80;5.80;;;;;7.90;53.14;99819.47;5120204;28;8875;-76
2022/12/02 02:51:21;;;;;;;;;4.80;4.80;;;;;8.01;52.97;99822.19;5086393;28;8836;-76
2022/12/02 02:53:50;;;;;;;;;5.00;5.00;;;;;7.98;53.18;99815.25;5087704;28;8997;-76
2022/12/02 02:56:19;;;;;;;;;5.80;5.80;;;;;7.96;52.54;99821.28;5085141;28;8879;-77
2022/12/02 02:58:49;;;;;;;;;6.00;6.00;;;;;8.22;52.45;99821.59;5086179;28;8976;-75
2022/12/02 03:01:24;;;;;;;;;5.00;5.00;;;;;8.26;52.24;99823.41;5085517;28;8874;-74
2022/12/02 03:03:58;;;;;;;;;6.40;6.00;;;;;8.22;52.12;99826.81;5099226;28;8858;-75
2022/12/02 03:06:30;;;;;;;;;6.20;5.20;;;;;8.19;52.36;99817.25;5066353;28;8846;-75
2022/12/02 03:08:59;;;;;;;;;4.60;4.60;;;;;8.00;52.47;99815.25;5069801;28;8889;-74
2022/12/02 03:11:30;;;;;;;;;6.60;6.00;;;;;8.01;53.45;99819.59;5068668;28;8866;-76
2022/12/02 03:14:01;;;;;;;;;3.20;3.20;;;;;8.01;53.39;99819.59;5085990;28;8851;-74
2022/12/02 03:16:30;;;;;;;;;2.00;2.00;;;;;8.16;52.49;99822.41;5088329;28;8961;-74
2022/12/02 03:19:00;;;;;;;;;6.00;6.00;;;;;8.36;52.20;99829.59;5068098;28;8895;-74
2022/12/02 03:21:28;;;;;;;;;6.80;6.80;;;;;8.53;51.11;99829.84;5076596;28;8863;-75
2022/12/02 03:24:00;;;;;;;;;5.80;5.80;;;;;8.64;51.43;99822.16;5065551;28;8874;-75
2022/12/02 03:26:29;;;;;;;;;7.00;6.40;;;;;8.53;50.96;99832.44;5067104;28;8858;-74
2022/12/02 03:29:00;;;;;;;;;6.40;5.60;;;;;8.53;51.57;99827.25;5078739;28;8846;-75
2022/12/02 03:31:29;;;;;;;;;8.20;6.20;;;;;8.65;50.76;99831.72;5084260;28;8838;-77
2022/12/02 03:33:58;;;;;;;;;4.20;4.20;;;;;8.74;50.95;99832.69;5084025;28;8861;-75
2022/12/02 03:36:27;;;;;;;;;9.00;6.00;;;;;8.83;50.86;99816.34;5044791;28;8898;-75
2022/12/02 03:38:56;;;;;;;;;3.60;3.60;;;;;8.67;51.09;99824.81;5067842;28;8843;-75
2022/12/02 03:41:26;;;;;;;;;3.00;3.00;;;;;8.72;51.22;99823.13;5067699;28;8902;-73
2022/12/02 03:43:55;;;;;;;;;5.80;5.80;;;;;8.70;50.66;99822.25;5067896;28;8860;-77
2022/12/02 03:46:26;;;;;;;;;5.00;5.00;;;;;8.78;50.54;99826.66;5066978;28;8836;-74
2022/12/02 03:48:57;;;;;;;;;6.20;6.20;;;;;8.71;50.55;99819.66;5067421;28;9002;-75
2022/12/02 03:51:26;;;;;;;;;5.20;4.80;;;;;8.74;51.05;99821.44;5067908;28;8886;-75
2022/12/02 03:53:56;;;;;;;;;3.00;2.80;;;;;8.54;51.15;99818.59;5067762;28;8864;-74
2022/12/02 03:56:24;;;;;;;;;8.40;5.40;;;;;8.51;51.28;99818.56;5067465;28;8986;-74
2022/12/02 03:58:54;;;;;;;;;6.40;5.00;;;;;8.53;51.33;99817.72;5067540;28;8953;-74
2022/12/02 04:01:23;;;;;;;;;5.00;3.20;;;;;8.55;51.13;99816.00;5085915;28;8886;-75
2022/12/02 04:03:53;;;;;;;;;5.00;5.00;;;;;8.59;51.28;99812.59;5074359;28;8846;-73
2022/12/02 04:06:22;;;;;;;;;2.40;2.40;;;;;8.63;50.94;99816.09;5075259;28;8865;-73
2022/12/02 04:08:51;;;;;;;;;5.20;5.20;;;;;8.53;51.73;99817.72;5071377;28;8858;-74
2022/12/02 04:11:20;;;;;;;;;5.60;2.80;;;;;8.54;51.97;99822.06;5070562;28;8921;-74
2022/12/02 04:13:48;;;;;;;;;3.00;2.40;;;;;8.76;51.15;99823.19;5070010;28;8861;-75
2022/12/02 04:16:17;;;;;;;;;5.20;5.20;;;;;8.57;51.17;99821.22;5068781;28;8842;-74
2022/12/02 04:18:45;;;;;;;;;7.00;6.00;;;;;8.78;50.82;99825.81;5078671;28;8981;-76
2022/12/02 04:21:15;;;;;;;;;6.00;6.00;;;;;8.78;51.00;99810.19;5067010;28;8992;-76
2022/12/02 04:23:44;;;;;;;;;6.60;6.00;;;;;8.72;50.78;99811.00;5050880;28;9606;-75
2022/12/02 04:26:13;;;;;;;;;9.80;9.00;;;;;8.62;51.47;99813.47;5064476;28;8867;-74
2022/12/02 04:28:41;;;;;;;;;10.00;10.00;;;;;8.67;50.94;99817.88;5046956;28;8861;-74
2022/12/02 04:31:10;;;;;;;;;6.60;5.40;;;;;8.61;51.00;99811.75;5046909;28;8842;-75
2022/12/02 04:33:39;;;;;;;;;5.40;3.00;;;;;8.55;51.51;99820.34;5046425;28;8857;-74
2022/12/02 04:36:08;;;;;;;;;4.80;4.80;;;;;8.55;51.66;99818.59;5061686;28;9516;-74
2022/12/02 04:38:38;;;;;;;;;7.60;5.40;;;;;8.51;51.46;99813.38;5050007;28;8855;-74
2022/12/02 04:41:06;;;;;;;;;7.80;5.40;;;;;8.36;51.44;99812.28;5066368;28;8856;-75
2022/12/02 04:43:35;;;;;;;;;4.20;4.20;;;;;8.15;52.28;99812.88;5069536;28;8870;-75
2022/12/02 04:46:03;;;;;;;;;11.00;10.20;;;;;7.93;52.85;99801.31;5077793;28;8867;-75
2022/12/02 04:48:32;;;;;;;;;3.00;2.00;;;;;8.07;53.16;99811.91;5059085;28;8964;-75
2022/12/02 04:51:01;;;;;;;;;6.60;5.80;;;;;8.10;52.52;99819.72;5029887;28;8857;-74
2022/12/02 04:53:29;;;;;;;;;6.00;5.60;;;;;8.09;52.57;99817.09;5081906;28;8875;-75
2022/12/02 04:55:59;;;;;;;;;8.20;5.60;;;;;8.14;52.22;99818.91;5087796;28;8839;-76
2022/12/02 04:58:28;;;;;;;;;4.20;4.20;;;;;8.28;52.25;99810.41;5092920;28;8883;-73
2022/12/02 05:00:57;;;;;;;;;15.40;12.80;;;;;8.37;51.64;99801.03;5055075;28;8883;-74
2022/12/02 05:03:25;;;;;;;;;13.00;7.00;;;;;8.26;51.86;99809.53;5086651;28;8855;-75
2022/12/02 05:05:54;;;;;;;;;5.60;5.60;;;;;8.35;52.24;99813.13;5053803;28;8843;-74
2022/12/02 05:08:22;;;;;;;;;7.00;5.20;;;;;8.34;52.29;99805.31;5086548;28;8855;-72
2022/12/02 05:10:51;;;;;;;;;6.00;6.00;;;;;8.29;52.29;99810.44;5087773;28;8921;-76
2022/12/02 05:13:21;;;;;;;;;5.80;5.20;;;;;8.19;52.03;99809.47;5053223;28;8859;-74
2022/12/02 05:15:50;;;;;;;;;7.60;6.40;;;;;7.92;52.65;99816.84;5082791;28;9583;-74
2022/12/02 05:18:18;;;;;;;;;6.00;6.00;;;;;8.01;52.90;99814.41;5066657;28;8877;-74
2022/12/02 05:20:47;;;;;;;;;16.80;16.20;;;;;7.78;53.17;99812.34;5067084;28;8927;-76
2022/12/02 05:23:15;;;;;;;;;6.00;6.00;;;;;7.88;53.13;99807.28;5068950;28;8874;-76
2022/12/02 05:25:44;;;;;;;;;6.60;6.40;;;;;7.91;53.38;99813.41;5075285;28;8850;-75
2022/12/02 05:28:13;;;;;;;;;5.80;5.00;;;;;8.18;52.25;99810.34;5088800;28;8999;-74
2022/12/02 05:30:43;;;;;;;;;5.60;4.20;;;;;8.18;52.54;99810.34;5079304;28;8854;-75
2022/12/02 05:33:12;;;;;;;;;7.60;6.20;;;;;8.06;52.60;99812.75;5068117;28;9019;-75
2022/12/02 05:35:41;;;;;;;;;7.20;5.80;;;;;7.87;52.87;99805.56;5068276;28;8858;-76
2022/12/02 05:38:09;;;;;;;;;5.40;5.00;;;;;7.87;52.75;99813.34;5067815;28;8862;-75
2022/12/02 05:40:38;;;;;;;;;6.00;6.00;;;;;7.93;52.66;99805.63;5067835;28;8854;-74
2022/12/02 05:43:16;;;;;;;;;6.80;5.80;;;;;7.66;52.99;99806.97;5068106;28;8830;-75
2022/12/02 05:45:47;;;;;;;;;6.40;6.00;;;;;7.83;53.46;99804.63;5066838;28;8909;-75
2022/12/02 05:48:17;;;;;;;;;7.00;7.00;;;;;7.44;54.06;99807.47;5068778;28;8985;-75
2022/12/02 05:50:46;;;;;;;;;8.40;7.60;;;;;7.54;53.77;99806.75;5068540;28;8877;-74
2022/12/02 05:53:22;;;;;;;;;9.60;9.60;;;;;7.56;54.22;99799.88;5066206;28;8875;-74
2022/12/02 05:55:51;;;;;;;;;9.20;9.20;;;;;7.74;53.58;99799.31;5067633;28;8850;-74
2022/12/02 05:58:20;;;;;;;;;7.60;6.60;;;;;7.91;52.55;99799.56;5074951;28;8887;-75
2022/12/02 06:00:56;;;;;;;;;11.20;9.80;;;;;7.67;54.13;99800.91;5084710;28;8909;-74
2022/12/02 06:03:25;;;;;;;;;12.40;10.00;;;;;7.88;53.28;99796.91;5068117;28;8864;-74
2022/12/02 06:05:54;;;;;;;;;11.40;10.20;;;;;8.00;52.50;99797.94;5075684;28;9608;-76
2022/12/02 06:08:25;;;;;;;;;9.40;9.00;;;;;7.96;53.30;99793.56;5085537;28;9684;-76
2022/12/02 06:11:00;;;;;;;;;11.00;7.60;;;;;8.15;52.96;99797.28;5086377;28;9641;-77
2022/12/02 06:13:31;;;;;;;;;6.60;6.60;;;;;8.21;52.06;99801.69;5086590;28;9002;-74
2022/12/02 06:16:06;;;;;;;;;7.40;7.40;;;;;8.44;52.07;99809.81;5082501;28;8871;-76
2022/12/02 06:18:36;;;;;;;;;11.20;9.00;;;;;8.43;52.02;99801.97;5085674;28;8970;-74
2022/12/02 06:21:13;;;;;;;;;9.60;8.60;;;;;8.50;51.50;99798.59;5087029;28;8916;-76
2022/12/02 06:23:45;;;;;;;;;8.60;6.80;;;;;8.77;50.84;99811.94;5086066;28;9108;-76
2022/12/02 06:26:15;;;;;;;;;12.60;11.20;;;;;8.55;50.95;99820.34;5087555;28;8855;-75
2022/12/02 06:28:45;;;;;;;;;12.00;10.20;;;;;8.63;51.25;99818.69;5086334;28;8879;-77
2022/12/02 06:31:20;;;;;;;;;11.20;6.80;;;;;8.68;51.27;99822.22;5069233;28;9737;-77
2022/12/02 06:33:51;;;;;;;;;10.60;10.40;;;;;8.67;51.92;99830.88;5082204;28;8867;-75
2022/12/02 06:36:23;;;;;;;;;15.20;12.00;;;;;8.70;51.22;99837.84;5051259;28;9571;-75
2022/12/02 06:38:56;;;;;;;;;12.20;12.20;;;;;8.83;51.39;99841.44;5087048;28;8864;-74
2022/12/02 06:41:27;;;;;;;;;10.60;10.20;;;;;8.93;50.49;99844.16;5085837;28;8848;-76
2022/12/02 06:46:47;;;;;;;;;12.00;10.60;;;;;8.67;51.15;99846.47;5103145;28;8961;-75
2022/12/02 06:49:20;;;;;;;;;11.80;11.40;;;;;9.09;50.03;99850.44;5087592;28;8867;-78
2022/12/02 06:51:55;;;;;;;;;7.80;7.80;;;;;9.08;50.19;99843.47;5083992;28;9626;-77
2022/12/02 06:54:28;;;;;;;;;8.60;8.60;;;;;9.20;49.97;99849.66;5084014;28;8869;-78
2022/12/02 06:56:58;;;;;;;;;11.20;10.60;;;;;9.34;49.38;99856.72;5085330;28;8844;-76
2022/12/02 06:59:28;;;;;;;;;8.80;8.80;;;;;9.54;49.45;99848.22;5111276;28;8866;-78
2022/12/02 07:02:02;;;;;;;;;7.80;6.20;;;;;9.43;49.07;99853.31;5075840;28;8901;-80
2022/12/02 07:04:44;;;;;;;;;9.00;9.00;;;;;9.69;48.65;99850.94;5077339;28;8887;-79
2022/12/02 07:07:17;;;;;;;;;11.20;9.60;;;;;9.69;48.53;99852.69;5067274;28;8828;-80
2022/12/02 07:09:48;;;;;;;;;8.20;7.00;;;;;9.54;48.55;99848.22;5090011;28;8861;-79
2022/12/02 07:12:19;;;;;;;;;10.00;8.80;;;;;9.47;48.83;99854.22;5090724;28;8891;-78
2022/12/02 07:14:50;;;;;;;;;6.20;6.00;;;;;9.74;48.24;99859.69;5071963;28;8866;-79
2022/12/02 07:17:25;;;;;;;;;6.20;6.20;;;;;9.80;47.56;99869.28;5055182;28;8904;-77
2022/12/02 07:20:00;;;;;;;;;7.20;7.20;;;;;9.94;47.76;99869.38;5056087;28;8830;-77
2022/12/02 07:22:34;;;;;;;;;9.60;9.60;;;;;10.02;47.81;99872.91;5066074;28;8856;-78
2022/12/02 07:25:24;;;;;;;;;7.60;7.20;;;;;10.14;47.43;99872.13;5084974;28;8870;-80
2022/12/02 07:27:54;;;;;;;;;9.40;9.00;;;;;10.02;46.56;99872.91;5089367;28;8865;-80
2022/12/02 07:30:26;;;;;;;;;6.80;6.80;;;;;10.01;46.92;99870.28;5090588;28;8919;-83
2022/12/02 07:32:57;;;;;;;;;5.40;5.40;;;;;9.88;47.27;99870.19;5058575;28;8853;-83
2022/12/02 07:35:26;;;;;;;;;6.80;6.80;;;;;9.55;47.91;99863.00;5082485;28;8894;-82
2022/12/02 07:37:56;;;;;;;;;5.20;5.20;;;;;9.50;47.97;99862.94;5086674;28;8964;-81
2022/12/02 07:40:28;;;;;;;;;12.00;9.80;;;;;9.63;47.66;99866.53;5074106;28;8888;-81
2022/12/02 07:42:57;;;;;;;;;1.40;1.40;;;;;9.52;48.06;99861.22;5090602;28;8854;-81
2022/12/02 07:45:25;;;;;;;;;9.80;8.00;;;;;9.56;48.00;99863.03;5068880;28;8984;-80
2022/12/02 07:47:56;;;;;;;;;5.20;5.20;;;;;9.51;48.15;99850.81;5107738;28;8978;-84
2022/12/02 07:50:34;;;;;;;;;9.00;7.40;;;;;9.66;47.73;99844.84;5106130;28;8880;-81
2022/12/02 07:53:04;;;;;;;;;6.80;6.80;;;;;9.35;48.56;99839.38;5070041;28;8990;-80
2022/12/02 07:55:32;;;;;;;;;5.00;5.00;;;;;9.51;47.58;99833.47;5048906;28;8915;-84
2022/12/02 07:58:02;;;;;;;;;9.20;6.60;;;;;9.29;48.47;99847.13;5074108;28;8853;-82
2022/12/02 08:00:30;;;;;;;;;6.00;6.00;;;;;9.24;48.20;99831.47;5071884;28;8891;-82
2022/12/02 08:03:02;;;;;;;;;7.00;7.00;;;;;9.41;48.55;99835.97;5066290;28;9752;-82
2022/12/02 08:05:31;;;;;;;;;7.20;7.20;;;;;9.61;48.08;99841.34;5000777;28;8964;-85
2022/12/02 08:08:00;;;;;;;;;6.60;5.20;;;;;9.51;48.04;99843.00;5003174;28;8866;-83
2022/12/02 08:10:29;;;;;;;;;7.60;6.00;;;;;9.57;48.09;99853.47;5009721;28;8893;-83
2022/12/02 08:12:58;;;;;;;;;7.40;6.20;;;;;9.52;47.67;99852.53;4993204;28;8892;-82
2022/12/02 08:15:26;;;;;;;;;7.80;7.20;;;;;9.57;47.61;99856.06;4992688;28;9603;-81
2022/12/02 08:17:56;;;;;;;;;7.20;7.20;;;;;9.71;47.47;99856.16;5005491;28;8882;-83
2022/12/02 08:20:29;;;;;;;;;3.80;3.80;;;;;9.64;47.42;99852.66;4985339;28;8966;-83
2022/12/02 08:22:58;;;;;;;;;5.80;5.60;;;;;9.58;47.54;99855.19;4998337;28;8884;-81
2022/12/02 08:25:26;;;;;;;;;5.60;5.60;;;;;9.59;47.24;99862.16;5033464;28;8876;-80
2022/12/02 08:27:55;;;;;;;;;6.80;6.40;;;;;9.62;47.57;99859.59;5011806;28;9784;-82
2022/12/02 08:30:25;;;;;;;;;6.00;5.60;;;;;9.69;47.43;99858.75;5084429;28;8941;-84
2022/12/02 08:32:55;;;;;;;;;7.00;5.80;;;;;9.87;47.05;99867.59;5046966;28;8850;-81
2022/12/02 08:35:24;;;;;;;;;5.60;5.60;;;;;10.00;47.24;99876.34;5052047;28;8880;-86
2022/12/02 08:37:54;;;;;;;;;7.00;7.00;;;;;9.99;47.54;99870.28;5032119;28;8885;-83
2022/12/02 08:40:23;;;;;;;;;6.40;6.40;;;;;10.36;46.54;99880.97;5026433;28;9715;-84
2022/12/02 08:42:54;;;;;;;;;5.60;5.60;;;;;10.60;45.86;99881.97;5074846;28;8871;-82
2022/12/02 08:45:43;;;;;;;;;4.80;4.80;;;;;10.48;46.14;99880.16;5048077;28;8999;-82
2022/12/02 08:48:12;;;;;;;;;7.60;7.00;;;;;10.83;45.51;99880.34;5025928;28;8978;-83
2022/12/02 08:50:41;;;;;;;;;8.80;5.60;;;;;10.79;45.05;99870.72;4989011;28;9069;-83
2022/12/02 08:53:11;;;;;;;;;6.20;4.20;;;;;10.91;44.83;99860.34;5014221;28;8856;-80
2022/12/02 08:55:39;;;;;;;;;4.80;4.80;;;;;10.87;44.72;99865.56;5001375;28;8867;-82
2022/12/02 08:58:09;;;;;;;;;5.80;5.80;;;;;11.03;44.95;99869.09;5014848;28;8905;-80
2022/12/02 09:00:39;;;;;;;;;6.00;6.00;;;;;11.07;44.85;99863.00;5025490;28;8857;-80
2022/12/02 09:03:09;;;;;;;;;2.00;2.00;;;;;11.17;44.35;99866.50;5055266;28;8898;-82
2022/12/02 09:05:40;;;;;;;;;2.00;1.60;;;;;10.95;44.27;99862.97;5091310;28;8855;-80
2022/12/02 09:08:09;;;;;;;;;3.40;3.00;;;;;11.09;44.35;99867.34;5089777;28;8843;-80
2022/12/02 09:10:39;;;;;;;;;4.00;4.00;;;;;11.10;44.38;99863.88;5072182;28;8856;-82
2022/12/02 09:13:08;;;;;;;;;4.60;4.60;;;;;11.10;44.40;99858.66;5076975;28;8853;-80
2022/12/02 09:15:37;;;;;;;;;4.80;3.40;;;;;11.22;43.96;99868.25;5088855;28;8975;-81
2022/12/02 09:18:05;;;;;;;;;6.00;5.00;;;;;11.28;43.71;99862.16;5068932;28;8900;-79
2022/12/02 09:20:42;;;;;;;;;6.80;6.00;;;;;11.12;43.76;99869.13;5087102;28;9623;-80
2022/12/02 09:23:10;;;;;;;;;5.60;5.60;;;;;11.31;44.07;99862.19;5052476;28;8873;-79
2022/12/02 09:25:41;;;;;;;;;4.00;4.00;;;;;11.20;43.71;99863.91;5032341;28;8892;-80
2022/12/02 09:28:10;;;;;;;;;6.40;6.00;;;;;11.09;44.63;99869.09;5047147;28;8874;-80
2022/12/02 09:30:39;;;;;;;;;4.80;4.80;;;;;10.98;44.47;99865.59;5027195;28;8864;-78
2022/12/02 09:33:08;;;;;;;;;8.80;7.00;;;;;11.14;43.81;99867.38;5013226;28;8846;-79
2022/12/02 09:35:36;;;;;;;;;4.80;4.80;;;;;11.17;43.76;99863.88;5028554;28;8864;-80
2022/12/02 09:38:06;;;;;;;;;4.00;4.00;;;;;10.97;44.97;99863.84;5042531;28;8858;-79
2022/12/02 09:40:35;;;;;;;;;7.60;6.00;;;;;11.25;44.42;99862.19;5047775;28;8886;-79
2022/12/02 09:43:06;;;;;;;;;9.40;7.80;;;;;11.08;44.77;99863.00;5033761;28;8838;-82
2022/12/02 09:45:35;;;;;;;;;7.00;7.00;;;;;11.18;44.07;99852.59;5027014;28;8951;-81
2022/12/02 09:48:04;;;;;;;;;3.00;3.00;;;;;11.12;44.27;99861.28;5006026;28;8890;-80
2022/12/02 09:50:33;;;;;;;;;6.40;6.20;;;;;11.22;44.52;99860.41;5026176;28;8959;-78
2022/12/02 09:53:05;;;;;;;;;5.60;5.60;;;;;11.34;44.11;99861.31;5026548;28;8886;-80
2022/12/02 09:55:36;;;;;;;;;7.00;6.00;;;;;11.41;43.90;99861.31;5030718;28;9670;-80
2022/12/02 09:58:19;;;;;;;;;7.00;6.20;;;;;11.65;43.56;99857.84;5065173;28;8902;-81
2022/12/02 10:00:51;;;;;;;;;6.60;6.60;;;;;11.64;43.68;99856.09;5049050;28;8860;-80
2022/12/02 10:03:24;;;;;;;;;3.20;3.20;;;;;11.89;43.45;99846.56;5065300;28;8929;-76
2022/12/02 10:05:53;;;;;;;;;9.40;8.00;;;;;11.86;43.21;99856.13;5035404;28;8880;-79
2022/12/02 10:08:25;;;;;;;;;8.80;8.00;;;;;12.07;43.13;99848.25;5065712;28;8845;-82
2022/12/02 10:10:56;;;;;;;;;8.00;7.40;;;;;12.13;43.02;99842.16;5050086;28;8869;-81
2022/12/02 10:13:28;;;;;;;;;6.00;4.00;;;;;12.25;42.48;99841.28;5033290;28;8846;-81
2022/12/02 10:15:58;;;;;;;;;9.40;7.40;;;;;12.22;41.67;99854.34;5030623;28;8844;-81
2022/12/02 10:18:30;;;;;;;;;5.20;5.20;;;;;12.14;42.81;99843.06;5073266;28;8842;-73
2022/12/02 10:20:59;;;;;;;;;6.60;6.60;;;;;12.09;42.66;99845.66;5018432;28;8885;-74
2022/12/02 10:23:28;;;;;;;;;7.80;7.20;;;;;12.18;43.17;99842.16;5028265;28;8820;-73
2022/12/02 10:26:12;;;;;;;;;7.20;7.20;;;;;12.14;44.08;99843.06;5045011;28;8846;-76
2022/12/02 10:28:42;;;;;;;;;7.00;4.20;;;;;12.16;44.09;99846.53;5044874;28;9666;-73
2022/12/02 10:31:13;;;;;;;;;7.40;6.80;;;;;12.22;43.95;99838.66;5046974;28;8861;-74
2022/12/02 10:33:52;;;;;;;;;4.80;4.80;;;;;12.41;42.70;99842.09;4987474;28;8847;-73
2022/12/02 10:36:30;;;;;;;;;6.80;4.80;;;;;12.52;42.93;99844.69;5026053;28;8989;-74
2022/12/02 10:39:18;;;;;;;;;5.20;4.80;;;;;12.59;42.73;99838.53;5048482;28;9091;-75
2022/12/02 10:41:48;;;;;;;;;6.40;5.40;;;;;12.66;42.71;99837.63;5059914;28;8822;-74
2022/12/02 10:44:20;;;;;;;;;7.80;7.20;;;;;12.68;43.29;99835.88;5047608;28;8846;-80
2022/12/02 10:46:49;;;;;;;;;6.60;5.80;;;;;12.78;42.05;99837.59;5034257;28;8866;-83
2022/12/02 10:49:28;;;;;;;;;7.00;7.00;;;;;12.90;41.84;99834.03;5051697;28;8862;-80
2022/12/02 10:52:01;;;;;;;;;7.60;7.00;;;;;12.97;41.68;99832.25;5047768;28;8909;-81
2022/12/02 10:54:33;;;;;;;;;6.80;6.80;;;;;12.87;41.56;99837.53;5086954;28;8894;-82
2022/12/02 10:57:16;;;;;;;;;7.00;5.20;;;;;12.85;42.15;99834.06;5093817;28;8867;-85
2022/12/02 10:59:46;;;;;;;;;4.00;4.00;;;;;12.73;41.74;99828.88;5051019;28;8939;-79
2022/12/02 11:02:23;;;;;;;;;9.60;9.40;;;;;12.83;42.21;99824.47;5019634;28;8864;-82
2022/12/02 11:04:52;;;;;;;;;5.20;2.60;;;;;12.88;41.23;99833.16;5053195;28;8972;-82
2022/12/02 11:07:23;;;;;;;;;8.40;8.40;;;;;12.83;41.94;99830.56;5045417;28;8838;-82
2022/12/02 11:09:55;;;;;;;;;8.80;7.60;;;;;12.98;41.37;99828.75;5033349;28;10225;-82
2022/12/02 11:12:37;;;;;;;;;7.00;7.00;;;;;12.98;41.58;99827.00;5029123;28;8945;-81
2022/12/02 11:15:37;;;;;;;;;7.40;5.80;;;;;13.12;40.95;99819.06;5017082;28;8851;-82
2022/12/02 11:18:07;;;;;;;;;7.00;3.00;;;;;13.03;41.80;99829.59;4985097;28;8866;-81
2022/12/02 11:20:41;;;;;;;;;7.80;7.80;;;;;13.10;41.26;99817.31;5033994;28;8863;-80
2022/12/02 11:23:25;;;;;;;;;3.00;2.00;;;;;13.37;41.09;99819.78;4988459;28;8852;-80
2022/12/02 11:26:03;;;;;;;;;10.40;8.00;;;;;13.27;40.95;99821.59;5034333;28;8970;-80
2022/12/02 11:28:37;;;;;;;;;7.40;7.40;;;;;13.45;40.73;99832.84;5001600;28;9774;-82
2022/12/02 11:31:26;;;;;;;;;7.20;7.20;;;;;13.51;40.89;99834.53;4976580;28;8870;-82
2022/12/02 11:34:23;;;;;;;;;6.20;4.20;;;;;13.40;40.89;99821.50;4954329;28;8963;-80
2022/12/02 11:37:29;;;;;;;;;9.00;9.00;;;;;13.45;41.30;99833.69;4906799;28;8840;-81
2022/12/02 11:39:59;;;;;;;;;9.00;9.00;;;;;13.30;41.28;99825.94;4954262;28;8849;-80
2022/12/02 11:42:29;;;;;;;;;8.60;8.60;;;;;13.41;41.26;99823.25;4921448;28;8911;-82
2022/12/02 11:45:14;;;;;;;;;9.60;7.00;;;;;13.07;41.43;99828.69;4936518;28;8858;-82
2022/12/02 11:47:59;;;;;;;;;7.20;7.20;;;;;13.15;41.92;99829.50;5013280;28;9008;-84
2022/12/02 11:50:30;;;;;;;;;8.60;8.40;;;;;13.07;41.29;99832.19;5012620;28;8846;-83
2022/12/02 11:53:03;;;;;;;;;9.20;9.20;;;;;12.99;41.61;99833.97;5032069;28;8838;-82
2022/12/02 11:55:34;;;;;;;;;10.20;7.20;;;;;13.12;41.09;99841.75;5027968;28;8963;-81
2022/12/02 11:58:04;;;;;;;;;7.20;7.20;;;;;13.00;41.22;99835.69;5028614;28;8894;-83
2022/12/02 12:00:35;;;;;;;;;6.80;6.80;;;;;13.02;41.38;99841.81;5027294;28;8851;-82
2022/12/02 12:03:11;;;;;;;;;7.60;7.20;;;;;12.97;41.43;99838.34;5043996;28;9962;-80
2022/12/02 12:05:42;;;;;;;;;7.20;7.00;;;;;13.14;41.62;99840.03;5073842;28;8832;-82
2022/12/02 12:08:24;;;;;;;;;10.00;9.40;;;;;13.12;41.45;99840.03;5091052;28;8866;-79
2022/12/02 12:11:15;;;;;;;;;5.20;5.20;;;;;13.07;41.26;99839.16;5053085;28;9020;-79